Time;durP1;ratioP1;P1;durP2;ratioP2;P2;SDS_P1;SDS_P2;PMS_P1;PMS_P2;Temp;Humidity;BMP_temperature;BMP_pressure;BME280_temperature;BME280_humidity;BME280_pressure;Samples;Min_cycle;Max_cycle;Signal;HPM_P1;HPM_P2
2021/03/13 07:01:14;;;;;;;;;;;;;;;;;;5529764;23;1680;-71
2021/03/13 07:03:49;;;;;;;;;;;;;;;;;;4955385;29;1906;-68
2021/03/13 07:06:16;;;;;;;;;;;;;;;;;;4941014;29;815;-71
2021/03/13 07:08:43;;;;;;;;;;;;;;;;;;4940962;29;892;-67
2021/03/13 07:11:11;;;;;;;;;;;;;;;;;;4940778;29;1332;-69
2021/03/13 07:13:37;;;;;;;;;;;;;;;;;;4940504;29;889;-67
2021/03/13 07:16:21;;;;;;;;;;;;;;;;;;4941165;29;791;-69
2021/03/13 07:18:46;;;;;;;;;;;;;;;;;;4939634;29;1242;-69
2021/03/13 07:21:12;;;;;;;;;;;;;;;;;;4940658;29;1327;-71
2021/03/13 07:23:38;;;;;;;;;;;;;;;;;;4940463;29;1894;-66
2021/03/13 07:26:04;;;;;;;;;;;;;;;;;;4939200;29;874;-70
2021/03/13 07:28:30;;;;;;;;;;;;;;;;;;4940501;29;842;-71
2021/03/13 07:30:56;;;;;;;;;;;;;;;;;;4939188;29;1410;-66
2021/03/13 07:33:23;;;;;;;;;;;;;;;;;;4939046;29;1196;-68
2021/03/13 07:35:50;;;;;;;;;;;;;;;;;;4940534;29;963;-70
2021/03/13 07:38:17;;;;;;;;;;;;;;;;;;4940207;29;877;-70
2021/03/13 07:40:44;;;;;;;;;;;;;;;;;;4940267;29;1299;-72
2021/03/13 07:43:14;;;;;;;;;;;;;;;;;;4938851;29;1891;-68
2021/03/13 07:45:39;;;;;;;;;;;;;;;;;;4939013;29;1732;-66
2021/03/13 07:48:06;;;;;;;;;;;;;;;;;;4940240;29;815;-68
2021/03/13 07:50:31;;;;;;;;;;;;;;;;;;4939905;29;1287;-70
2021/03/13 07:52:57;;;;;;;;;;;;;;;;;;4938688;29;866;-71
2021/03/13 07:55:24;;;;;;;;;;;;;;;;;;4940463;29;929;-68
2021/03/13 07:57:50;;;;;;;;;;;;;;;;;;4938825;29;1175;-69
2021/03/13 08:00:16;;;;;;;;;;;;;;;;;;4939891;29;1311;-69
2021/03/13 08:02:43;;;;;;;;;;;;;;;;;;4938735;29;1964;-65
2021/03/13 08:05:12;;;;;;;;;;;;;;;;;;4939683;29;827;-70
2021/03/13 08:07:54;;;;;;;;;;;;;;;;;;4939200;29;806;-68
2021/03/13 08:10:38;;;;;;;;;;;;;;;;;;4938531;29;1323;-71
2021/03/13 08:13:03;;;;;;;;;;;;;;;;;;4938204;29;1586;-68
2021/03/13 08:15:29;;;;;;;;;;;;;;;;;;4939659;29;1072;-71
2021/03/13 08:17:54;;;;;;;;;;;;;;;;;;4939662;29;1060;-69
2021/03/13 08:20:27;;;;;;;;;;;;;;;;;;4939604;29;1295;-72
2021/03/13 08:23:10;;;;;;;;;;;;;;;;;;4939366;29;1894;-71
2021/03/13 08:25:51;;;;;;;;;;;;;;;;;;4938373;29;1328;-70
2021/03/13 08:28:35;;;;;;;;;;;;;;;;;;4938559;29;1148;-71
2021/03/13 08:31:29;;;;;;;;;;;;;;;;;;4939328;29;1284;-71
2021/03/13 08:33:58;;;;;;;;;;;;;;;;;;4935506;29;1420;-66
2021/03/13 08:36:24;;;;;;;;;;;;;;;;;;4937848;29;1210;-70
2021/03/13 08:38:51;;;;;;;;;;;;;;;;;;4938114;29;1266;-69
2021/03/13 08:41:36;;;;;;;;;;;;;;;;;;4939186;29;1438;-72
2021/03/13 08:44:01;;;;;;;;;;;;;;;;;;4937689;29;2655;-68
2021/03/13 08:46:45;;;;;;;;;;;;;;;;;;4937815;29;1435;-72
2021/03/13 08:49:11;;;;;;;;;;;;;;;;;;4937970;29;1299;-71
2021/03/13 08:51:37;;;;;;;;;;;;;;;;;;4937540;29;1351;-72
2021/03/13 08:54:02;;;;;;;;;;;;;;;;;;4938875;29;787;-72
2021/03/13 08:56:36;;;;;;;;;;;;;;;;;;4938933;29;892;-69
2021/03/13 08:59:08;;;;;;;;;;;;;;;;;;4938927;29;822;-73
2021/03/13 09:01:34;;;;;;;;;;;;;;;;;;4937226;29;1390;-70
2021/03/13 09:03:59;;;;;;;;;;;;;;;;;;4937550;29;1955;-72
2021/03/13 09:06:24;;;;;;;;;;;;;;;;;;4938685;29;952;-67
2021/03/13 09:08:49;;;;;;;;;;;;;;;;;;4937758;29;1156;-70
2021/03/13 09:11:27;;;;;;;;;;;;;;;;;;4939003;29;1481;-65
2021/03/13 09:14:01;;;;;;;;;;;;;;;;;;4938487;29;822;-68
2021/03/13 09:16:27;;;;;;;;;;;;;;;;;;4937418;29;1491;-66
2021/03/13 09:18:55;;;;;;;;;;;;;;;;;;4938539;29;870;-66
2021/03/13 09:21:37;;;;;;;;;;;;;;;;;;4938667;29;1295;-66
2021/03/13 09:24:03;;;;;;;;;;;;;;;;;;4938028;29;1956;-67
2021/03/13 09:26:28;;;;;;;;;;;;;;;;;;4938406;29;937;-66
2021/03/13 09:28:53;;;;;;;;;;;;;;;;;;4938497;29;815;-69
2021/03/13 09:31:19;;;;;;;;;;;;;;;;;;4938075;29;1434;-67
2021/03/13 09:33:44;;;;;;;;;;;;;;;;;;4938203;29;822;-66
2021/03/13 09:36:10;;;;;;;;;;;;;;;;;;4937998;29;965;-72
2021/03/13 09:38:35;;;;;;;;;;;;;;;;;;4937008;29;1672;-71
2021/03/13 09:41:00;;;;;;;;;;;;;;;;;;4936830;29;1551;-68
2021/03/13 09:43:26;;;;;;;;;;;;;;;;;;4937913;29;1899;-67
2021/03/13 09:45:51;;;;;;;;;;;;;;;;;;4938038;29;840;-68
2021/03/13 09:48:16;;;;;;;;;;;;;;;;;;4937852;29;886;-68
2021/03/13 09:50:42;;;;;;;;;;;;;;;;;;4937944;29;1319;-68
2021/03/13 09:53:08;;;;;;;;;;;;;;;;;;4937802;29;989;-66
2021/03/13 09:55:34;;;;;;;;;;;;;;;;;;4938008;29;874;-69
2021/03/13 09:58:01;;;;;;;;;;;;;;;;;;4937831;29;886;-68
2021/03/13 10:00:27;;;;;;;;;;;;;;;;;;4937546;29;1299;-66
2021/03/13 10:02:54;;;;;;;;;;;;;;;;;;4936422;29;1907;-72
2021/03/13 10:05:20;;;;;;;;;;;;;;;;;;4936612;29;1343;-70
2021/03/13 10:07:49;;;;;;;;;;;;;;;;;;4937718;29;1207;-68
2021/03/13 10:10:16;;;;;;;;;;;;;;;;;;4937520;29;1280;-69
2021/03/13 10:12:42;;;;;;;;;;;;;;;;;;4936283;29;1398;-72
2021/03/13 10:15:22;;;;;;;;;;;;;;;;;;4937717;29;976;-72
2021/03/13 10:17:55;;;;;;;;;;;;;;;;;;4936388;29;1739;-69
2021/03/13 10:20:21;;;;;;;;;;;;;;;;;;4937707;29;1351;-68
2021/03/13 10:22:46;;;;;;;;;;;;;;;;;;4936057;29;1903;-71
2021/03/13 10:25:12;;;;;;;;;;;;;;;;;;4937676;29;886;-69
2021/03/13 10:27:37;;;;;;;;;;;;;;;;;;4937376;29;914;-67
2021/03/13 10:30:05;;;;;;;;;;;;;;;;;;4936779;29;894;-69
2021/03/13 10:32:32;;;;;;;;;;;;;;;;;;4937291;29;803;-69
2021/03/13 10:35:10;;;;;;;;;;;;;;;;;;4936121;29;1254;-68
2021/03/13 10:37:36;;;;;;;;;;;;;;;;;;4937596;29;838;-70
2021/03/13 10:40:03;;;;;;;;;;;;;;;;;;4937623;29;815;-69
2021/03/13 10:42:33;;;;;;;;;;;;;;;;;;4936857;29;1899;-66
2021/03/13 10:45:09;;;;;;;;;;;;;;;;;;4936115;29;1383;-71
2021/03/13 10:47:35;;;;;;;;;;;;;;;;;;4937306;29;1095;-67
2021/03/13 10:50:01;;;;;;;;;;;;;;;;;;4937294;29;945;-68
2021/03/13 10:52:27;;;;;;;;;;;;;;;;;;4935887;29;1465;-71
2021/03/13 10:54:52;;;;;;;;;;;;;;;;;;4936107;29;925;-66
2021/03/13 10:57:18;;;;;;;;;;;;;;;;;;4937547;29;883;-66
2021/03/13 10:59:43;;;;;;;;;;;;;;;;;;4936068;29;1226;-67
2021/03/13 11:02:09;;;;;;;;;;;;;;;;;;4936996;29;1288;-69
2021/03/13 11:04:34;;;;;;;;;;;;;;;;;;4937222;29;2043;-68
2021/03/13 11:06:59;;;;;;;;;;;;;;;;;;4937136;29;889;-70
2021/03/13 11:09:25;;;;;;;;;;;;;;;;;;4937165;29;962;-69
2021/03/13 11:11:50;;;;;;;;;;;;;;;;;;4935584;29;1461;-66
2021/03/13 11:14:16;;;;;;;;;;;;;;;;;;4935744;29;791;-69
2021/03/13 11:16:41;;;;;;;;;;;;;;;;;;4936193;29;1193;-65
2021/03/13 11:19:06;;;;;;;;;;;;;;;;;;4993955;23;3714;-78
2021/03/13 11:21:32;;;;;;;;;;;;;;;;;;4994773;28;1381;-78
2021/03/13 11:23:57;;;;;;;;;;;;;;;;;;4992769;28;1907;-79
2021/03/13 11:26:23;;;;;;;;;;;;;;;;;;4994588;28;841;-78
2021/03/13 11:28:49;;;;;;;;;;;;;;;;;;4993478;28;1325;-78
2021/03/13 11:31:14;;;;;;;;;;;;;;;;;;4993503;28;1358;-78
2021/03/13 11:33:40;;;;;;;;;;;;;;;;;;4992740;28;1546;-78
2021/03/13 11:36:05;;;;;;;;;;;;;;;;;;4993506;28;947;-79
2021/03/13 11:38:32;;;;;;;;;;;;;;;;;;4993204;28;1310;-78
2021/03/13 11:40:57;;;;;;;;;;;;;;;;;;4992686;28;1441;-78
2021/03/13 11:43:22;;;;;;;;;;;;;;;;;;4996349;28;2001;-78
2021/03/13 11:45:48;;;;;;;;;;;;;;;;;;4997320;28;901;-78
2021/03/13 11:48:13;;;;;;;;;;;;;;;;;;4996768;28;1245;-78
2021/03/13 11:50:38;;;;;;;;;;;;;;;;;;4997711;28;1271;-78
2021/03/13 11:53:04;;;;;;;;;;;;;;;;;;4997641;28;935;-78
2021/03/13 11:55:29;;;;;;;;;;;;;;;;;;4996572;28;1223;-79
2021/03/13 11:57:54;;;;;;;;;;;;;;;;;;4996455;28;1229;-78
2021/03/13 12:00:20;;;;;;;;;;;;;;;;;;4996713;28;1481;-78
2021/03/13 12:02:46;;;;;;;;;;;;;;;;;;4997051;28;1910;-79
2021/03/13 12:05:12;;;;;;;;;;;;;;;;;;4996385;28;1255;-78
2021/03/13 12:07:37;;;;;;;;;;;;;;;;;;4997509;28;1040;-78
2021/03/13 12:10:03;;;;;;;;;;;;;;;;;;4996339;28;1240;-78
2021/03/13 12:12:28;;;;;;;;;;;;;;;;;;4996933;28;789;-78
2021/03/13 12:14:54;;;;;;;;;;;;;;;;;;4996277;28;1180;-78
2021/03/13 12:17:19;;;;;;;;;;;;;;;;;;4997416;28;944;-78
2021/03/13 12:19:45;;;;;;;;;;;;;;;;;;4996455;28;1290;-78
2021/03/13 12:22:10;;;;;;;;;;;;;;;;;;4996863;28;1425;-78
2021/03/13 12:24:35;;;;;;;;;;;;;;;;;;4996084;28;2002;-78
2021/03/13 12:27:01;;;;;;;;;;;;;;;;;;4996899;28;825;-78
2021/03/13 12:29:26;;;;;;;;;;;;;;;;;;4997230;28;912;-78
2021/03/13 12:31:52;;;;;;;;;;;;;;;;;;4995675;28;1425;-78
2021/03/13 12:34:17;;;;;;;;;;;;;;;;;;4990999;28;1161;-79
2021/03/13 12:36:42;;;;;;;;;;;;;;;;;;4985721;28;1208;-79
2021/03/13 12:39:08;;;;;;;;;;;;;;;;;;4985580;28;1204;-78
2021/03/13 12:41:34;;;;;;;;;;;;;;;;;;4978564;28;1377;-78
2021/03/13 12:43:59;;;;;;;;;;;;;;;;;;4975639;28;1973;-77
2021/03/13 12:46:25;;;;;;;;;;;;;;;;;;4976197;28;1239;-78
2021/03/13 12:48:50;;;;;;;;;;;;;;;;;;4976044;28;1208;-77
2021/03/13 12:51:16;;;;;;;;;;;;;;;;;;4976121;28;1366;-77
2021/03/13 12:53:42;;;;;;;;;;;;;;;;;;4975293;28;1538;-80
2021/03/13 12:56:08;;;;;;;;;;;;;;;;;;4977173;28;886;-80
2021/03/13 12:58:33;;;;;;;;;;;;;;;;;;4975900;28;1362;-80
2021/03/13 13:00:58;;;;;;;;;;;;;;;;;;4975982;28;1283;-80
2021/03/13 13:03:24;;;;;;;;;;;;;;;;;;4976583;28;1949;-80
2021/03/13 13:05:49;;;;;;;;;;;;;;;;;;4977125;28;936;-80
2021/03/13 13:08:14;;;;;;;;;;;;;;;;;;4975751;28;1220;-77
2021/03/13 13:10:40;;;;;;;;;;;;;;;;;;4976798;28;1354;-77
2021/03/13 13:13:11;;;;;;;;;;;;;;;;;;4975303;28;877;-77
2021/03/13 13:15:37;;;;;;;;;;;;;;;;;;4977011;28;862;-77
2021/03/13 13:18:02;;;;;;;;;;;;;;;;;;4975418;28;1235;-78
2021/03/13 13:20:27;;;;;;;;;;;;;;;;;;4976914;28;1401;-78
2021/03/13 13:22:52;;;;;;;;;;;;;;;;;;4975282;28;1957;-77
2021/03/13 13:25:18;;;;;;;;;;;;;;;;;;4975550;28;1120;-78
2021/03/13 13:27:43;;;;;;;;;;;;;;;;;;4976769;28;888;-78
2021/03/13 13:30:12;;;;;;;;;;;;;;;;;;4975320;28;1665;-78
2021/03/13 13:32:37;;;;;;;;;;;;;;;;;;4976027;28;1147;-78
2021/03/13 13:35:03;;;;;;;;;;;;;;;;;;4975504;28;1184;-78
2021/03/13 13:37:28;;;;;;;;;;;;;;;;;;4975390;28;1383;-78
2021/03/13 13:39:55;;;;;;;;;;;;;;;;;;4976477;28;1001;-78
2021/03/13 13:42:20;;;;;;;;;;;;;;;;;;4974579;28;1378;-78
2021/03/13 13:44:45;;;;;;;;;;;;;;;;;;4976257;28;1953;-77
2021/03/13 13:47:11;;;;;;;;;;;;;;;;;;4975156;28;1204;-77
2021/03/13 13:49:36;;;;;;;;;;;;;;;;;;4975103;28;1180;-80
2021/03/13 13:52:01;;;;;;;;;;;;;;;;;;4975754;28;1405;-79
2021/03/13 13:54:27;;;;;;;;;;;;;;;;;;4975008;28;897;-80
2021/03/13 13:56:52;;;;;;;;;;;;;;;;;;4976119;28;896;-80
2021/03/13 13:59:18;;;;;;;;;;;;;;;;;;4976018;28;885;-80
2021/03/13 14:01:43;;;;;;;;;;;;;;;;;;4975054;28;1374;-80
2021/03/13 14:04:08;;;;;;;;;;;;;;;;;;4974087;28;1948;-79
2021/03/13 14:06:34;;;;;;;;;;;;;;;;;;4974105;28;1649;-80
2021/03/13 14:08:59;;;;;;;;;;;;;;;;;;4976130;28;850;-80
2021/03/13 14:11:24;;;;;;;;;;;;;;;;;;4975193;28;1326;-79
2021/03/13 14:13:49;;;;;;;;;;;;;;;;;;4974252;28;936;-80
2021/03/13 14:16:16;;;;;;;;;;;;;;;;;;4974701;28;1288;-80
2021/03/13 14:18:41;;;;;;;;;;;;;;;;;;4974643;28;1327;-80
2021/03/13 14:21:07;;;;;;;;;;;;;;;;;;4974497;28;1354;-80
2021/03/13 14:23:32;;;;;;;;;;;;;;;;;;4975444;28;1953;-79
2021/03/13 14:25:58;;;;;;;;;;;;;;;;;;4974926;28;1090;-80
2021/03/13 14:28:23;;;;;;;;;;;;;;;;;;4974572;28;1304;-79
2021/03/13 14:30:48;;;;;;;;;;;;;;;;;;4975576;28;1373;-79
2021/03/13 14:33:14;;;;;;;;;;;;;;;;;;4973932;28;1200;-79
2021/03/13 14:35:39;;;;;;;;;;;;;;;;;;4974448;28;1454;-79
2021/03/13 14:38:05;;;;;;;;;;;;;;;;;;4974495;28;1319;-79
2021/03/13 14:40:30;;;;;;;;;;;;;;;;;;4975296;28;1377;-79
2021/03/13 14:42:55;;;;;;;;;;;;;;;;;;4973824;28;1919;-80
2021/03/13 14:45:21;;;;;;;;;;;;;;;;;;4974477;28;1239;-79
2021/03/13 14:47:47;;;;;;;;;;;;;;;;;;4975786;28;1056;-80
2021/03/13 14:50:13;;;;;;;;;;;;;;;;;;4974355;28;1448;-79
2021/03/13 14:52:39;;;;;;;;;;;;;;;;;;4974857;28;905;-79
2021/03/13 14:55:06;;;;;;;;;;;;;;;;;;4975593;28;1093;-79
2021/03/13 14:57:31;;;;;;;;;;;;;;;;;;4974251;28;806;-79
2021/03/13 14:59:57;;;;;;;;;;;;;;;;;;4974323;28;977;-79
2021/03/13 15:02:23;;;;;;;;;;;;;;;;;;4973549;28;1398;-79
2021/03/13 15:04:48;;;;;;;;;;;;;;;;;;4974127;28;1952;-80
2021/03/13 15:07:13;;;;;;;;;;;;;;;;;;4975252;28;908;-79
2021/03/13 15:09:38;;;;;;;;;;;;;;;;;;4974564;28;1343;-80
2021/03/13 15:12:04;;;;;;;;;;;;;;;;;;4974907;28;1444;-79
2021/03/13 15:14:29;;;;;;;;;;;;;;;;;;4975368;28;1174;-79
2021/03/13 15:16:55;;;;;;;;;;;;;;;;;;4977105;28;862;-80
2021/03/13 15:19:20;;;;;;;;;;;;;;;;;;4977746;28;1212;-79
2021/03/13 15:21:46;;;;;;;;;;;;;;;;;;4977728;28;1366;-79
2021/03/13 15:24:11;;;;;;;;;;;;;;;;;;4977691;28;1966;-80
2021/03/13 15:26:37;;;;;;;;;;;;;;;;;;4977777;28;825;-80
2021/03/13 15:29:03;;;;;;;;;;;;;;;;;;4977588;28;1213;-79
2021/03/13 15:31:28;;;;;;;;;;;;;;;;;;4979318;28;1299;-80
2021/03/13 15:33:53;;;;;;;;;;;;;;;;;;4976960;28;1947;-79
2021/03/13 15:36:19;;;;;;;;;;;;;;;;;;4979004;28;861;-79
2021/03/13 15:38:44;;;;;;;;;;;;;;;;;;4977683;28;1181;-80
2021/03/13 15:41:12;;;;;;;;;;;;;;;;;;4978678;28;1421;-79
2021/03/13 15:43:38;;;;;;;;;;;;;;;;;;4976889;28;1894;-79
2021/03/13 15:46:03;;;;;;;;;;;;;;;;;;4978641;28;838;-79
2021/03/13 15:48:29;;;;;;;;;;;;;;;;;;4978353;28;845;-79
2021/03/13 15:50:55;;;;;;;;;;;;;;;;;;4978339;28;1327;-79
2021/03/13 15:53:20;;;;;;;;;;;;;;;;;;4976366;28;1240;-79
2021/03/13 15:55:46;;;;;;;;;;;;;;;;;;4978322;28;920;-79
2021/03/13 15:58:11;;;;;;;;;;;;;;;;;;4976962;28;1266;-80
2021/03/13 16:00:36;;;;;;;;;;;;;;;;;;4977102;28;1377;-79
2021/03/13 16:03:01;;;;;;;;;;;;;;;;;;4977555;28;1878;-80
2021/03/13 16:05:27;;;;;;;;;;;;;;;;;;4978322;28;948;-80
2021/03/13 16:07:52;;;;;;;;;;;;;;;;;;4977282;28;909;-79
2021/03/13 16:10:18;;;;;;;;;;;;;;;;;;4978204;28;1342;-79
2021/03/13 16:12:43;;;;;;;;;;;;;;;;;;4976294;28;837;-80
2021/03/13 16:15:09;;;;;;;;;;;;;;;;;;4976552;28;881;-78
2021/03/13 16:17:36;;;;;;;;;;;;;;;;;;4982447;28;1385;-79
2021/03/13 16:20:03;;;;;;;;;;;;;;;;;;4986175;28;1300;-80
2021/03/13 16:22:29;;;;;;;;;;;;;;;;;;4984069;28;1228;-79
2021/03/13 16:24:54;;;;;;;;;;;;;;;;;;4986661;28;1898;-79
2021/03/13 16:27:19;;;;;;;;;;;;;;;;;;4985114;28;1219;-79
2021/03/13 16:29:45;;;;;;;;;;;;;;;;;;4979539;28;1263;-79
2021/03/13 16:32:10;;;;;;;;;;;;;;;;;;4976938;28;1401;-79
2021/03/13 16:34:35;;;;;;;;;;;;;;;;;;4976423;28;1685;-79
2021/03/13 16:37:01;;;;;;;;;;;;;;;;;;4977715;28;917;-79
2021/03/13 16:39:26;;;;;;;;;;;;;;;;;;4976580;28;1113;-79
2021/03/13 16:41:51;;;;;;;;;;;;;;;;;;4976032;28;1453;-79
2021/03/13 16:44:16;;;;;;;;;;;;;;;;;;4977199;28;1899;-78
2021/03/13 16:46:42;;;;;;;;;;;;;;;;;;4976196;28;1860;-79
2021/03/13 16:49:07;;;;;;;;;;;;;;;;;;4977610;28;877;-79
2021/03/13 16:51:32;;;;;;;;;;;;;;;;;;4976357;28;1361;-79
2021/03/13 16:53:58;;;;;;;;;;;;;;;;;;4977509;28;861;-79
2021/03/13 16:56:23;;;;;;;;;;;;;;;;;;4976293;28;810;-80
2021/03/13 16:58:48;;;;;;;;;;;;;;;;;;4976441;28;1335;-79
2021/03/13 17:01:13;;;;;;;;;;;;;;;;;;4976156;28;1351;-80
2021/03/13 17:03:39;;;;;;;;;;;;;;;;;;4975572;28;1906;-79
2021/03/13 17:06:04;;;;;;;;;;;;;;;;;;4977278;28;861;-80
2021/03/13 17:08:30;;;;;;;;;;;;;;;;;;4976149;28;1350;-80
2021/03/13 17:10:55;;;;;;;;;;;;;;;;;;4977468;28;1307;-79
2021/03/13 17:13:21;;;;;;;;;;;;;;;;;;4976982;28;845;-79
2021/03/13 17:15:47;;;;;;;;;;;;;;;;;;4977300;28;921;-89
2021/03/13 17:18:12;;;;;;;;;;;;;;;;;;4977025;28;912;-78
2021/03/13 17:20:38;;;;;;;;;;;;;;;;;;4977086;28;1449;-79
2021/03/13 17:23:03;;;;;;;;;;;;;;;;;;4975321;28;1965;-78
2021/03/13 17:25:28;;;;;;;;;;;;;;;;;;4975859;28;857;-78
2021/03/13 17:27:53;;;;;;;;;;;;;;;;;;4977466;28;852;-78
2021/03/13 17:30:19;;;;;;;;;;;;;;;;;;4976852;28;1302;-77
2021/03/13 17:32:44;;;;;;;;;;;;;;;;;;4975218;28;1303;-77
2021/03/13 17:35:10;;;;;;;;;;;;;;;;;;4975704;28;1431;-78
2021/03/13 17:37:36;;;;;;;;;;;;;;;;;;4976701;28;880;-78
2021/03/13 17:40:06;;;;;;;;;;;;;;;;;;4975000;28;1283;-78
2021/03/13 17:42:31;;;;;;;;;;;;;;;;;;4975278;28;1252;-78
2021/03/13 17:44:56;;;;;;;;;;;;;;;;;;4976340;28;1968;-78
2021/03/13 17:47:22;;;;;;;;;;;;;;;;;;4975091;28;854;-78
2021/03/13 17:49:48;;;;;;;;;;;;;;;;;;4976493;28;818;-78
2021/03/13 17:52:13;;;;;;;;;;;;;;;;;;4974460;28;1378;-78
2021/03/13 17:54:38;;;;;;;;;;;;;;;;;;4976482;28;877;-78
2021/03/13 17:57:04;;;;;;;;;;;;;;;;;;4976031;28;841;-78
2021/03/13 17:59:29;;;;;;;;;;;;;;;;;;4974973;28;1240;-78
2021/03/13 18:01:54;;;;;;;;;;;;;;;;;;4975288;28;1326;-78
2021/03/13 18:04:19;;;;;;;;;;;;;;;;;;4974627;28;1899;-79
2021/03/13 18:06:45;;;;;;;;;;;;;;;;;;4974839;28;1135;-78
2021/03/13 18:09:11;;;;;;;;;;;;;;;;;;4974657;28;1524;-78
2021/03/13 18:11:36;;;;;;;;;;;;;;;;;;4975157;28;1425;-78
2021/03/13 18:14:02;;;;;;;;;;;;;;;;;;4974421;28;1173;-78
2021/03/13 18:16:27;;;;;;;;;;;;;;;;;;4975895;28;1182;-78
2021/03/13 18:18:53;;;;;;;;;;;;;;;;;;4974616;28;1204;-78
2021/03/13 18:21:18;;;;;;;;;;;;;;;;;;4976211;28;1338;-78
2021/03/13 18:23:44;;;;;;;;;;;;;;;;;;4974053;28;1986;-78
2021/03/13 18:26:09;;;;;;;;;;;;;;;;;;4975742;28;778;-78
2021/03/13 18:28:34;;;;;;;;;;;;;;;;;;4974605;28;1509;-78
2021/03/13 18:31:00;;;;;;;;;;;;;;;;;;4974651;28;1307;-78
2021/03/13 18:33:25;;;;;;;;;;;;;;;;;;4975374;28;892;-78
2021/03/13 18:35:50;;;;;;;;;;;;;;;;;;4974426;28;1119;-78
2021/03/13 18:38:16;;;;;;;;;;;;;;;;;;4975479;28;846;-78
2021/03/13 18:40:41;;;;;;;;;;;;;;;;;;4974429;28;1540;-78
2021/03/13 18:43:06;;;;;;;;;;;;;;;;;;4973963;28;1898;-79
2021/03/13 18:45:31;;;;;;;;;;;;;;;;;;4974414;28;826;-78
2021/03/13 18:47:57;;;;;;;;;;;;;;;;;;4975321;28;893;-78
2021/03/13 18:50:22;;;;;;;;;;;;;;;;;;4975473;28;1282;-78
2021/03/13 18:52:47;;;;;;;;;;;;;;;;;;4977467;28;1141;-78
2021/03/13 18:55:13;;;;;;;;;;;;;;;;;;4979661;28;909;-78
2021/03/13 18:57:38;;;;;;;;;;;;;;;;;;4978171;28;1204;-78
2021/03/13 19:00:05;;;;;;;;;;;;;;;;;;4979234;28;1330;-78
2021/03/13 19:02:30;;;;;;;;;;;;;;;;;;4979060;28;869;-78
2021/03/13 19:04:55;;;;;;;;;;;;;;;;;;4979430;28;1949;-78
2021/03/13 19:07:20;;;;;;;;;;;;;;;;;;4979407;28;868;-78
2021/03/13 19:09:46;;;;;;;;;;;;;;;;;;4978061;28;824;-78
2021/03/13 19:12:11;;;;;;;;;;;;;;;;;;4978636;28;1326;-78
2021/03/13 19:14:36;;;;;;;;;;;;;;;;;;4978958;28;856;-78
2021/03/13 19:17:02;;;;;;;;;;;;;;;;;;4979142;28;971;-78
2021/03/13 19:19:27;;;;;;;;;;;;;;;;;;4979001;28;1033;-78
2021/03/13 19:21:53;;;;;;;;;;;;;;;;;;4978870;28;1315;-78
2021/03/13 19:24:19;;;;;;;;;;;;;;;;;;4977366;28;1902;-77
2021/03/13 19:26:44;;;;;;;;;;;;;;;;;;4977664;28;1208;-76
2021/03/13 19:29:09;;;;;;;;;;;;;;;;;;4977742;28;2511;-77
2021/03/13 19:31:34;;;;;;;;;;;;;;;;;;4979041;28;1417;-78
2021/03/13 19:34:00;;;;;;;;;;;;;;;;;;4978313;28;871;-77
2021/03/13 19:36:25;;;;;;;;;;;;;;;;;;4978858;28;925;-77
2021/03/13 19:38:50;;;;;;;;;;;;;;;;;;4978790;28;953;-77
2021/03/13 19:41:18;;;;;;;;;;;;;;;;;;4977348;28;1385;-77
2021/03/13 19:43:43;;;;;;;;;;;;;;;;;;4976684;28;1894;-77
2021/03/13 19:46:08;;;;;;;;;;;;;;;;;;4978502;28;928;-77
2021/03/13 19:48:34;;;;;;;;;;;;;;;;;;4977245;28;1203;-77
2021/03/13 19:51:00;;;;;;;;;;;;;;;;;;4978494;28;1299;-77
2021/03/13 19:53:25;;;;;;;;;;;;;;;;;;4977906;28;893;-77
2021/03/13 19:55:50;;;;;;;;;;;;;;;;;;4978403;28;913;-77
2021/03/13 19:58:16;;;;;;;;;;;;;;;;;;4977169;28;1294;-77
2021/03/13 20:00:42;;;;;;;;;;;;;;;;;;4977071;28;1362;-77
2021/03/13 20:03:07;;;;;;;;;;;;;;;;;;4975241;28;1886;-77
2021/03/13 20:05:32;;;;;;;;;;;;;;;;;;4977017;28;1685;-77
2021/03/13 20:07:57;;;;;;;;;;;;;;;;;;4976937;28;1247;-77
2021/03/13 20:10:23;;;;;;;;;;;;;;;;;;4976894;28;2259;-77
2021/03/13 20:12:48;;;;;;;;;;;;;;;;;;4977702;28;866;-77
2021/03/13 20:15:14;;;;;;;;;;;;;;;;;;4978159;28;810;-77
2021/03/13 20:17:39;;;;;;;;;;;;;;;;;;4976720;28;1260;-77
2021/03/13 20:20:06;;;;;;;;;;;;;;;;;;4978050;28;1373;-77
2021/03/13 20:22:31;;;;;;;;;;;;;;;;;;4976229;28;1227;-77
2021/03/13 20:24:57;;;;;;;;;;;;;;;;;;4977831;28;1898;-77
2021/03/13 20:27:22;;;;;;;;;;;;;;;;;;4976282;28;1217;-77
2021/03/13 20:29:47;;;;;;;;;;;;;;;;;;4976714;28;1539;-77
2021/03/13 20:32:13;;;;;;;;;;;;;;;;;;4976257;28;1546;-77
2021/03/13 20:34:38;;;;;;;;;;;;;;;;;;4978010;28;801;-77
2021/03/13 20:37:04;;;;;;;;;;;;;;;;;;4976563;28;1204;-77
2021/03/13 20:39:30;;;;;;;;;;;;;;;;;;4976447;28;1477;-77
2021/03/13 20:41:56;;;;;;;;;;;;;;;;;;4975987;28;1334;-77
2021/03/13 20:44:21;;;;;;;;;;;;;;;;;;4975592;28;2034;-77
2021/03/13 20:46:46;;;;;;;;;;;;;;;;;;4975733;28;1273;-77
2021/03/13 20:49:11;;;;;;;;;;;;;;;;;;4976719;28;806;-77
2021/03/13 20:51:37;;;;;;;;;;;;;;;;;;4976924;28;1310;-77
2021/03/13 20:54:03;;;;;;;;;;;;;;;;;;4975212;28;1244;-77
2021/03/13 20:56:28;;;;;;;;;;;;;;;;;;4976903;28;871;-77
2021/03/13 20:58:53;;;;;;;;;;;;;;;;;;4974966;28;1414;-77
2021/03/13 21:01:19;;;;;;;;;;;;;;;;;;4976659;28;1309;-77
2021/03/13 21:03:45;;;;;;;;;;;;;;;;;;4976126;28;1918;-77
2021/03/13 21:06:10;;;;;;;;;;;;;;;;;;4975298;28;1036;-78
2021/03/13 21:08:35;;;;;;;;;;;;;;;;;;4976267;28;833;-78
2021/03/13 21:11:00;;;;;;;;;;;;;;;;;;4976470;28;1322;-77
2021/03/13 21:13:26;;;;;;;;;;;;;;;;;;4974281;28;1636;-77
2021/03/13 21:15:51;;;;;;;;;;;;;;;;;;4976193;28;948;-77
2021/03/13 21:18:16;;;;;;;;;;;;;;;;;;4975177;28;1220;-77
2021/03/13 21:20:42;;;;;;;;;;;;;;;;;;4976340;28;1287;-77
2021/03/13 21:23:07;;;;;;;;;;;;;;;;;;4974330;28;1902;-77
2021/03/13 21:25:32;;;;;;;;;;;;;;;;;;4974961;28;956;-77
2021/03/13 21:27:58;;;;;;;;;;;;;;;;;;4976105;28;775;-77
2021/03/13 21:30:23;;;;;;;;;;;;;;;;;;4976258;28;1343;-78
2021/03/13 21:32:49;;;;;;;;;;;;;;;;;;4975963;28;806;-77
2021/03/13 21:35:14;;;;;;;;;;;;;;;;;;4974723;28;1307;-77
2021/03/13 21:37:40;;;;;;;;;;;;;;;;;;4975899;28;890;-77
2021/03/13 21:40:05;;;;;;;;;;;;;;;;;;4974529;28;1323;-77
2021/03/13 21:42:30;;;;;;;;;;;;;;;;;;4973952;28;1205;-78
2021/03/13 21:44:55;;;;;;;;;;;;;;;;;;4975908;28;1895;-77
2021/03/13 21:47:21;;;;;;;;;;;;;;;;;;4975570;28;865;-77
2021/03/13 21:49:46;;;;;;;;;;;;;;;;;;4974524;28;822;-77
2021/03/13 21:52:11;;;;;;;;;;;;;;;;;;4973850;28;1346;-77
2021/03/13 21:54:37;;;;;;;;;;;;;;;;;;4975594;28;901;-77
2021/03/13 21:57:02;;;;;;;;;;;;;;;;;;4975520;28;879;-77
2021/03/13 21:59:27;;;;;;;;;;;;;;;;;;4975659;28;804;-77
2021/03/13 22:01:53;;;;;;;;;;;;;;;;;;4975392;28;1295;-77
2021/03/13 22:04:18;;;;;;;;;;;;;;;;;;4975092;28;1886;-77
2021/03/13 22:06:44;;;;;;;;;;;;;;;;;;4974178;28;1205;-78
2021/03/13 22:09:09;;;;;;;;;;;;;;;;;;4974027;28;2163;-77
2021/03/13 22:11:34;;;;;;;;;;;;;;;;;;4973938;28;1389;-77
2021/03/13 22:13:59;;;;;;;;;;;;;;;;;;4973555;28;1200;-77
2021/03/13 22:16:25;;;;;;;;;;;;;;;;;;4975475;28;861;-77
2021/03/13 22:18:50;;;;;;;;;;;;;;;;;;4975784;28;898;-77
2021/03/13 22:21:15;;;;;;;;;;;;;;;;;;4975512;28;1384;-78
2021/03/13 22:23:41;;;;;;;;;;;;;;;;;;4974566;28;1960;-77
2021/03/13 22:26:06;;;;;;;;;;;;;;;;;;4974503;28;822;-78
2021/03/13 22:28:31;;;;;;;;;;;;;;;;;;4975219;28;853;-77
2021/03/13 22:30:57;;;;;;;;;;;;;;;;;;4975373;28;1386;-78
2021/03/13 22:33:23;;;;;;;;;;;;;;;;;;4973276;28;1351;-78
2021/03/13 22:35:48;;;;;;;;;;;;;;;;;;4975049;28;801;-78
2021/03/13 22:38:14;;;;;;;;;;;;;;;;;;4975261;28;820;-78
2021/03/13 22:40:39;;;;;;;;;;;;;;;;;;4974763;28;1326;-78
2021/03/13 22:43:04;;;;;;;;;;;;;;;;;;4974207;28;1992;-78
2021/03/13 22:45:33;;;;;;;;;;;;;;;;;;4975234;28;802;-78
2021/03/13 22:48:00;;;;;;;;;;;;;;;;;;4973312;28;1262;-78
2021/03/13 22:50:26;;;;;;;;;;;;;;;;;;4974919;28;1437;-78
2021/03/13 22:52:52;;;;;;;;;;;;;;;;;;4974416;28;877;-78
2021/03/13 22:55:17;;;;;;;;;;;;;;;;;;4974946;28;904;-78
2021/03/13 22:57:43;;;;;;;;;;;;;;;;;;4973503;28;894;-77
2021/03/13 23:00:14;;;;;;;;;;;;;;;;;;4973441;28;1354;-78
2021/03/13 23:02:39;;;;;;;;;;;;;;;;;;4974321;28;952;-78
2021/03/13 23:05:05;;;;;;;;;;;;;;;;;;4973561;28;1908;-78
2021/03/13 23:07:30;;;;;;;;;;;;;;;;;;4973363;28;1465;-78
2021/03/13 23:09:55;;;;;;;;;;;;;;;;;;4974776;28;826;-78
2021/03/13 23:12:20;;;;;;;;;;;;;;;;;;4974403;28;1366;-78
2021/03/13 23:14:46;;;;;;;;;;;;;;;;;;4974726;28;956;-78
2021/03/13 23:17:11;;;;;;;;;;;;;;;;;;4974748;28;876;-78
2021/03/13 23:19:36;;;;;;;;;;;;;;;;;;4974612;28;979;-78
2021/03/13 23:22:01;;;;;;;;;;;;;;;;;;4972959;28;1386;-78
2021/03/13 23:24:27;;;;;;;;;;;;;;;;;;4974461;28;1894;-78
2021/03/13 23:26:52;;;;;;;;;;;;;;;;;;4974697;28;956;-78
2021/03/13 23:29:17;;;;;;;;;;;;;;;;;;4974776;28;904;-78
2021/03/13 23:31:42;;;;;;;;;;;;;;;;;;4974525;28;1291;-78
2021/03/13 23:34:08;;;;;;;;;;;;;;;;;;4973920;28;968;-78
2021/03/13 23:36:33;;;;;;;;;;;;;;;;;;4974789;28;892;-78
2021/03/13 23:38:59;;;;;;;;;;;;;;;;;;4978054;28;935;-78
2021/03/13 23:41:24;;;;;;;;;;;;;;;;;;4977041;28;1609;-78
2021/03/13 23:43:49;;;;;;;;;;;;;;;;;;4976180;28;1886;-78
2021/03/13 23:46:15;;;;;;;;;;;;;;;;;;4976763;28;1381;-78
2021/03/13 23:48:40;;;;;;;;;;;;;;;;;;4960512;28;1262;-78
2021/03/13 23:51:06;;;;;;;;;;;;;;;;;;4978161;28;1279;-78
2021/03/13 23:53:32;;;;;;;;;;;;;;;;;;4977283;28;857;-78
2021/03/13 23:55:59;;;;;;;;;;;;;;;;;;4976504;28;844;-78
2021/03/13 23:58:26;;;;;;;;;;;;;;;;;;4978374;28;891;-78
